createdAt,value
2018-05-07T00:00:06.406Z,3.60
2018-05-07T00:02:40.976Z,2.10
2018-05-07T00:05:15.629Z,3.43
2018-05-07T00:07:50.269Z,2.90
2018-05-07T00:10:24.971Z,2.63
2018-05-07T00:12:59.432Z,2.67
2018-05-07T00:15:33.972Z,2.13
2018-05-07T00:18:09.442Z,2.10
2018-05-07T00:20:44.034Z,2.77
2018-05-07T00:23:18.736Z,2.20
2018-05-07T00:25:53.228Z,2.20
2018-05-07T00:28:27.824Z,4.47
2018-05-07T00:31:02.366Z,2.23
2018-05-07T00:33:37.682Z,2.30
2018-05-07T00:36:12.280Z,4.40
2018-05-07T00:38:46.906Z,2.80
2018-05-07T00:41:21.485Z,2.50
2018-05-07T00:43:56.688Z,5.17
2018-05-07T00:46:31.317Z,3.27
2018-05-07T00:49:05.794Z,3.20
2018-05-07T00:51:41.117Z,3.63
2018-05-07T00:54:15.547Z,3.47
2018-05-07T00:56:50.100Z,3.03
2018-05-07T00:59:24.745Z,2.87
2018-05-07T01:01:59.314Z,2.30
2018-05-07T01:04:33.710Z,2.57
2018-05-07T01:07:08.348Z,2.30
2018-05-07T01:09:42.785Z,2.37
2018-05-07T01:12:18.085Z,3.83
2018-05-07T01:14:52.706Z,3.33
2018-05-07T01:17:27.359Z,2.77
2018-05-07T01:20:01.868Z,3.30
2018-05-07T01:22:36.422Z,3.90
2018-05-07T01:25:11.043Z,4.83
2018-05-07T01:27:45.650Z,2.43
2018-05-07T01:30:20.886Z,3.00
2018-05-07T01:32:56.385Z,2.70
2018-05-07T01:35:30.973Z,2.70
2018-05-07T01:38:06.273Z,2.70
2018-05-07T01:40:40.839Z,3.53
2018-05-07T01:43:15.477Z,3.50
2018-05-07T01:45:49.845Z,3.97
2018-05-07T01:48:24.556Z,3.77
2018-05-07T01:50:59.134Z,2.73
2018-05-07T01:53:33.653Z,3.80
2018-05-07T01:56:08.178Z,3.43
2018-05-07T01:58:42.577Z,4.17
2018-05-07T02:01:17.023Z,5.53
2018-05-07T02:03:51.665Z,3.60
2018-05-07T02:06:26.291Z,3.67
2018-05-07T02:09:00.882Z,5.60
2018-05-07T02:11:35.397Z,5.60
2018-05-07T02:14:09.893Z,3.30
2018-05-07T02:16:44.483Z,5.47
2018-05-07T02:19:19.098Z,3.97
2018-05-07T02:21:53.680Z,3.77
2018-05-07T02:24:28.943Z,5.10
2018-05-07T02:27:03.380Z,4.47
2018-05-07T02:29:37.929Z,5.07
2018-05-07T02:32:12.449Z,4.53
2018-05-07T02:34:47.018Z,4.83
2018-05-07T02:37:21.621Z,4.03
2018-05-07T02:39:56.109Z,4.10
2018-05-07T02:42:30.716Z,4.00
2018-05-07T02:45:05.194Z,5.00
2018-05-07T02:47:39.919Z,3.93
2018-05-07T02:50:14.503Z,4.57
2018-05-07T02:52:49.895Z,5.00
2018-05-07T02:55:24.373Z,3.97
2018-05-07T02:57:58.908Z,3.90
2018-05-07T03:00:33.328Z,6.27
2018-05-07T03:03:07.970Z,4.53
2018-05-07T03:05:43.347Z,5.80
2018-05-07T03:08:18.686Z,4.03
2018-05-07T03:10:53.358Z,3.93
2018-05-07T03:13:27.942Z,4.23
2018-05-07T03:16:02.559Z,6.57
2018-05-07T03:18:36.938Z,3.40
2018-05-07T03:21:11.610Z,3.43
2018-05-07T03:23:46.204Z,3.50
2018-05-07T03:26:20.801Z,3.60
2018-05-07T03:28:55.440Z,4.30
2018-05-07T03:31:30.035Z,4.50
2018-05-07T03:34:04.693Z,4.23
2018-05-07T03:36:39.258Z,4.13
2018-05-07T03:39:13.878Z,4.37
2018-05-07T03:41:48.634Z,4.10
2018-05-07T03:44:23.149Z,4.60
2018-05-07T03:46:57.596Z,5.27
2018-05-07T03:49:32.196Z,6.20
2018-05-07T03:52:06.929Z,4.77
2018-05-07T03:54:42.064Z,3.60
2018-05-07T03:57:17.418Z,4.43
2018-05-07T03:59:52.028Z,3.30
2018-05-07T04:02:26.667Z,3.53
2018-05-07T04:05:01.881Z,5.90
2018-05-07T04:07:36.652Z,4.30
2018-05-07T04:10:11.374Z,4.33
2018-05-07T04:12:45.950Z,4.50
2018-05-07T04:15:21.211Z,3.27
2018-05-07T04:18:13.704Z,4.13
2018-05-07T04:21:05.883Z,3.67
2018-05-07T04:23:58.285Z,4.97
2018-05-07T04:26:33.693Z,3.07
2018-05-07T04:29:09.061Z,2.90
2018-05-07T04:31:43.646Z,4.87
2018-05-07T04:34:18.099Z,3.50
2018-05-07T04:36:52.638Z,2.87
2018-05-07T04:39:28.010Z,4.30
2018-05-07T04:42:02.532Z,4.43
2018-05-07T04:44:37.054Z,3.40
2018-05-07T04:47:11.632Z,5.03
2018-05-07T04:49:46.248Z,5.30
2018-05-07T04:52:20.879Z,4.60
2018-05-07T04:54:55.481Z,4.00
2018-05-07T04:57:30.169Z,4.63
2018-05-07T05:00:04.732Z,4.03
2018-05-07T05:02:39.329Z,3.50
2018-05-07T05:05:14.618Z,5.17
2018-05-07T05:07:49.417Z,3.13
2018-05-07T05:10:23.874Z,6.00
2018-05-07T05:12:59.269Z,3.17
2018-05-07T05:15:33.857Z,3.63
2018-05-07T05:18:09.237Z,4.60
2018-05-07T05:20:43.701Z,7.33
2018-05-07T05:23:18.171Z,4.03
2018-05-07T05:25:52.733Z,5.93
2018-05-07T05:28:28.033Z,4.70
2018-05-07T05:31:02.532Z,6.93
2018-05-07T05:33:37.142Z,6.97
2018-05-07T05:36:11.841Z,7.53
2018-05-07T05:38:46.395Z,7.00
2018-05-07T05:41:21.767Z,4.73
2018-05-07T05:43:56.299Z,6.17
2018-05-07T05:46:30.831Z,6.87
2018-05-07T05:49:05.381Z,7.30
2018-05-07T05:51:39.845Z,8.20
2018-05-07T05:54:15.207Z,6.30
2018-05-07T05:56:49.828Z,10.80
2018-05-07T05:59:25.162Z,7.20
2018-05-07T06:01:59.819Z,7.83
2018-05-07T06:04:34.398Z,6.67
2018-05-07T06:07:09.115Z,7.90
2018-05-07T06:09:43.771Z,10.80
2018-05-07T06:12:19.143Z,4.57
2018-05-07T06:14:53.954Z,9.60
2018-05-07T06:17:28.473Z,5.90
2018-05-07T06:20:03.112Z,4.03
2018-05-07T06:22:37.644Z,6.10
2018-05-07T06:25:12.218Z,4.87
2018-05-07T06:27:46.854Z,5.50
2018-05-07T06:30:21.422Z,4.07
2018-05-07T06:32:55.902Z,5.10
2018-05-07T06:35:30.415Z,7.87
2018-05-07T06:38:04.829Z,5.80
2018-05-07T06:40:39.370Z,6.07
2018-05-07T06:43:14.068Z,6.27
2018-05-07T06:45:48.712Z,3.47
2018-05-07T06:48:23.264Z,6.53
2018-05-07T06:50:57.920Z,4.47
2018-05-07T06:53:32.641Z,7.57
2018-05-07T06:56:07.263Z,6.17
2018-05-07T06:58:41.855Z,7.03
2018-05-07T07:01:16.445Z,5.40
2018-05-07T07:03:51.067Z,3.33
2018-05-07T07:06:25.675Z,6.30
2018-05-07T07:09:00.894Z,4.47
2018-05-07T07:11:35.555Z,3.93
2018-05-07T07:14:10.104Z,4.23
2018-05-07T07:16:44.697Z,3.73
2018-05-07T07:19:19.310Z,7.77
2018-05-07T07:21:53.860Z,3.87
2018-05-07T07:24:28.405Z,6.20
2018-05-07T07:27:03.002Z,4.80
2018-05-07T07:29:37.629Z,5.53
2018-05-07T07:32:12.245Z,6.13
2018-05-07T07:34:46.809Z,5.00
2018-05-07T07:37:24.369Z,5.50
2018-05-07T07:39:58.930Z,5.80
2018-05-07T07:42:33.539Z,2.87
2018-05-07T07:45:08.062Z,6.10
2018-05-07T07:47:42.754Z,5.67
2018-05-07T07:50:17.282Z,3.07
2018-05-07T07:52:51.902Z,3.03
2018-05-07T07:55:27.269Z,3.07
2018-05-07T07:58:01.900Z,5.47
2018-05-07T08:00:36.500Z,4.60
2018-05-07T08:03:11.054Z,4.57
2018-05-07T08:05:45.595Z,4.70
2018-05-07T08:08:20.242Z,7.07
2018-05-07T08:10:54.769Z,3.77
2018-05-07T08:13:29.358Z,5.57
2018-05-07T08:16:03.969Z,5.33
2018-05-07T08:18:38.443Z,3.57
2018-05-07T08:21:13.772Z,4.43
2018-05-07T08:23:48.368Z,3.00
2018-05-07T08:26:23.000Z,4.40
2018-05-07T08:28:57.524Z,2.30
2018-05-07T08:31:32.092Z,2.67
2018-05-07T08:34:06.775Z,7.43
2018-05-07T08:36:41.483Z,3.83
2018-05-07T08:39:15.945Z,3.73
2018-05-07T08:41:50.573Z,2.33
2018-05-07T08:44:25.170Z,6.33
2018-05-07T08:46:59.719Z,3.97
2018-05-07T08:49:34.206Z,6.83
2018-05-07T08:52:09.612Z,4.43
2018-05-07T08:54:44.831Z,3.43
2018-05-07T08:57:20.194Z,6.00
2018-05-07T08:59:54.715Z,6.03
2018-05-07T09:02:29.300Z,6.50
2018-05-07T09:05:03.933Z,4.47
2018-05-07T09:07:38.573Z,5.60
2018-05-07T09:10:13.227Z,2.63
2018-05-07T09:12:47.709Z,5.30
2018-05-07T09:15:22.254Z,7.77
2018-05-07T09:17:56.938Z,5.40
2018-05-07T09:20:31.497Z,2.43
2018-05-07T09:23:06.121Z,5.53
2018-05-07T09:25:40.613Z,6.13
2018-05-07T09:28:15.159Z,3.97
2018-05-07T09:30:49.801Z,2.73
2018-05-07T09:33:24.390Z,4.57
2018-05-07T09:35:58.888Z,3.47
2018-05-07T09:38:33.507Z,4.33
2018-05-07T09:41:08.150Z,7.30
2018-05-07T09:43:43.337Z,4.23
2018-05-07T09:46:17.908Z,3.27
2018-05-07T09:48:53.284Z,4.97
2018-05-07T09:51:27.807Z,3.80
2018-05-07T09:54:02.369Z,2.57
2018-05-07T09:56:54.836Z,1.57
2018-05-07T09:59:29.371Z,3.90
2018-05-07T10:02:03.864Z,2.30
2018-05-07T10:04:38.482Z,4.63
2018-05-07T10:07:13.171Z,2.03
2018-05-07T10:09:47.839Z,2.23
2018-05-07T10:12:23.083Z,2.23
2018-05-07T10:14:57.709Z,2.67
2018-05-07T10:17:32.362Z,1.63
2018-05-07T10:20:06.938Z,3.77
2018-05-07T10:22:41.614Z,4.20
2018-05-07T10:25:16.216Z,2.43
2018-05-07T10:27:50.848Z,3.73
2018-05-07T10:30:25.284Z,3.07
2018-05-07T10:33:00.525Z,2.47
2018-05-07T10:35:35.159Z,4.87
2018-05-07T10:38:09.769Z,5.53
2018-05-07T10:40:44.325Z,5.47
2018-05-07T10:43:18.873Z,2.77
2018-05-07T10:45:53.453Z,4.33
2018-05-07T10:48:27.900Z,5.07
2018-05-07T10:51:02.398Z,5.07
2018-05-07T10:53:37.037Z,8.20
2018-05-07T10:56:11.681Z,3.63
2018-05-07T10:58:46.280Z,3.73
2018-05-07T11:01:21.575Z,3.13
2018-05-07T11:03:56.238Z,2.90
2018-05-07T11:06:30.692Z,2.33
2018-05-07T11:09:06.167Z,5.50
2018-05-07T11:11:40.876Z,6.00
2018-05-07T11:14:15.445Z,2.97
2018-05-07T11:16:50.702Z,2.50
2018-05-07T11:19:25.333Z,3.03
2018-05-07T11:21:59.928Z,4.67
2018-05-07T11:24:34.541Z,3.77
2018-05-07T11:27:09.814Z,5.33
2018-05-07T11:29:44.418Z,1.70
2018-05-07T11:32:19.053Z,2.03
2018-05-07T11:34:54.439Z,4.80
2018-05-07T11:37:29.658Z,3.80
2018-05-07T11:40:04.281Z,3.27
2018-05-07T11:42:38.814Z,1.83
2018-05-07T11:45:13.414Z,4.93
2018-05-07T11:47:48.071Z,1.50
2018-05-07T11:50:22.618Z,3.37
2018-05-07T11:52:57.926Z,3.77
2018-05-07T11:55:32.534Z,2.20
2018-05-07T11:58:07.182Z,2.03
2018-05-07T12:00:41.718Z,2.57
2018-05-07T12:03:16.323Z,1.77
2018-05-07T12:05:51.457Z,1.53
2018-05-07T12:08:26.096Z,2.73
2018-05-07T12:11:00.620Z,2.93
2018-05-07T12:13:35.111Z,3.43
2018-05-07T12:16:09.796Z,2.50
2018-05-07T12:18:44.257Z,3.10
2018-05-07T12:21:18.820Z,2.37
2018-05-07T12:23:53.355Z,4.50
2018-05-07T12:26:27.968Z,4.60
2018-05-07T12:29:02.521Z,4.20
2018-05-07T12:31:37.129Z,3.20
2018-05-07T12:34:11.683Z,3.20
2018-05-07T12:36:46.280Z,2.73
2018-05-07T12:39:20.876Z,2.87
2018-05-07T12:41:55.386Z,1.90
2018-05-07T12:44:29.966Z,2.57
2018-05-07T12:47:04.403Z,6.13
2018-05-07T12:49:38.874Z,1.60
2018-05-07T12:52:13.481Z,2.70
2018-05-07T12:54:48.089Z,2.70
2018-05-07T12:57:22.761Z,1.43
2018-05-07T12:59:57.310Z,2.13
2018-05-07T13:02:31.781Z,3.90
2018-05-07T13:05:07.090Z,3.93
2018-05-07T13:07:42.302Z,4.90
2018-05-07T13:10:17.694Z,3.73
2018-05-07T13:12:52.309Z,2.13
2018-05-07T13:15:26.709Z,4.13
2018-05-07T13:18:01.322Z,5.03
2018-05-07T13:20:35.724Z,2.90
2018-05-07T13:23:10.324Z,1.53
2018-05-07T13:25:44.994Z,4.40
2018-05-07T13:28:19.458Z,3.40
2018-05-07T13:30:54.799Z,2.63
2018-05-07T13:33:29.392Z,2.00
2018-05-07T13:36:04.012Z,3.23
2018-05-07T13:38:39.376Z,2.93
2018-05-07T13:41:13.990Z,5.13
2018-05-07T13:43:48.618Z,2.97
2018-05-07T13:46:23.134Z,4.93
2018-05-07T13:48:57.691Z,3.43
2018-05-07T13:51:32.300Z,3.57
2018-05-07T13:54:06.734Z,2.10
2018-05-07T13:56:41.362Z,2.07
2018-05-07T13:59:15.797Z,4.03
2018-05-07T14:01:50.557Z,4.80
2018-05-07T14:04:24.989Z,3.63
2018-05-07T14:06:59.588Z,3.70
2018-05-07T14:09:34.048Z,3.40
2018-05-07T14:12:08.710Z,1.43
2018-05-07T14:14:44.101Z,3.33
2018-05-07T14:17:18.608Z,4.93
2018-05-07T14:19:53.252Z,4.07
2018-05-07T14:22:27.883Z,4.90
2018-05-07T14:25:02.371Z,1.93
2018-05-07T14:27:36.934Z,3.50
2018-05-07T14:30:12.215Z,4.70
2018-05-07T14:32:46.770Z,3.33
2018-05-07T14:35:21.148Z,2.60
2018-05-07T14:37:55.799Z,1.23
2018-05-07T14:40:30.231Z,4.00
2018-05-07T14:43:04.664Z,1.93
2018-05-07T14:45:39.225Z,2.63
2018-05-07T14:48:13.798Z,5.30
2018-05-07T14:50:48.370Z,4.10
2018-05-07T14:53:22.945Z,2.13
2018-05-07T14:55:57.522Z,2.33
2018-05-07T14:58:32.099Z,1.97
2018-05-07T15:01:07.436Z,3.13
2018-05-07T15:03:42.793Z,2.03
2018-05-07T15:06:17.315Z,4.60
2018-05-07T15:08:51.948Z,2.67
2018-05-07T15:11:26.537Z,2.37
2018-05-07T15:14:23.561Z,1.80
2018-05-07T15:16:58.096Z,3.17
2018-05-07T15:19:32.743Z,7.70
2018-05-07T15:22:07.315Z,1.37
2018-05-07T15:24:46.774Z,3.17
2018-05-07T15:27:22.096Z,3.40
2018-05-07T15:29:56.664Z,2.37
2018-05-07T15:32:31.144Z,4.63
2018-05-07T15:35:05.629Z,2.83
2018-05-07T15:37:40.227Z,3.13
2018-05-07T15:40:14.916Z,3.37
2018-05-07T15:42:49.509Z,3.93
2018-05-07T15:45:24.761Z,2.67
2018-05-07T15:47:59.389Z,2.53
2018-05-07T15:50:33.867Z,4.20
2018-05-07T15:53:09.146Z,1.77
2018-05-07T15:55:43.892Z,4.10
2018-05-07T15:58:18.521Z,5.27
2018-05-07T16:00:52.994Z,2.70
2018-05-07T16:03:27.566Z,2.10
2018-05-07T16:06:03.003Z,1.40
2018-05-07T16:08:37.449Z,4.70
2018-05-07T16:11:12.065Z,2.87
2018-05-07T16:13:47.421Z,3.43
2018-05-07T16:16:21.953Z,2.23
2018-05-07T16:18:57.249Z,5.50
2018-05-07T16:21:31.697Z,5.50
2018-05-07T16:24:06.291Z,3.07
2018-05-07T16:26:40.833Z,2.30
2018-05-07T16:29:16.220Z,5.27
2018-05-07T16:31:50.804Z,4.43
2018-05-07T16:34:25.268Z,3.97
2018-05-07T16:36:59.892Z,3.43
2018-05-07T16:39:34.534Z,2.10
2018-05-07T16:42:09.103Z,7.03
2018-05-07T16:44:43.592Z,2.23
2018-05-07T16:47:18.074Z,3.47
2018-05-07T16:49:52.625Z,3.63
2018-05-07T16:52:27.951Z,2.50
2018-05-07T16:55:02.421Z,2.20
2018-05-07T16:57:36.969Z,2.53
2018-05-07T17:00:11.583Z,1.73
2018-05-07T17:02:46.307Z,2.43
2018-05-07T17:05:20.986Z,2.00
2018-05-07T17:07:55.553Z,2.17
2018-05-07T17:10:30.221Z,2.50
2018-05-07T17:13:04.823Z,3.50
2018-05-07T17:15:39.397Z,3.77
2018-05-07T17:18:14.010Z,2.87
2018-05-07T17:20:48.602Z,2.30
2018-05-07T17:23:23.245Z,3.60
2018-05-07T17:25:57.803Z,7.47
2018-05-07T17:28:32.429Z,8.00
2018-05-07T17:31:06.985Z,4.83
2018-05-07T17:33:41.686Z,6.23
2018-05-07T17:36:16.030Z,4.03
2018-05-07T17:38:50.597Z,4.67
2018-05-07T17:41:26.032Z,3.27
2018-05-07T17:44:18.408Z,5.97
2018-05-07T17:47:10.749Z,4.53
2018-05-07T17:49:45.556Z,6.63
2018-05-07T17:52:20.052Z,5.90
2018-05-07T17:54:54.689Z,6.60
2018-05-07T17:57:29.213Z,8.97
2018-05-07T18:00:03.929Z,16.47
2018-05-07T18:02:38.397Z,17.03
2018-05-07T18:05:13.010Z,20.67
2018-05-07T18:07:47.547Z,7.53
2018-05-07T18:10:22.281Z,5.40
2018-05-07T18:12:56.677Z,7.27
2018-05-07T18:15:32.078Z,14.93
2018-05-07T18:18:06.615Z,15.23
2018-05-07T18:20:41.155Z,1.70
2018-05-07T18:23:16.457Z,2.07
2018-05-07T18:25:51.060Z,4.57
2018-05-07T18:28:25.654Z,5.90
2018-05-07T18:31:00.321Z,8.27
2018-05-07T18:33:34.952Z,18.83
2018-05-07T18:36:09.536Z,33.03
2018-05-07T18:38:44.126Z,3.90
2018-05-07T18:41:18.592Z,1.93
2018-05-07T18:43:53.254Z,5.63
2018-05-07T18:46:28.477Z,6.77
2018-05-07T18:49:03.125Z,2.60
2018-05-07T18:51:37.668Z,2.63
2018-05-07T18:54:12.234Z,2.50
2018-05-07T18:56:46.845Z,3.07
2018-05-07T18:59:21.386Z,2.67
2018-05-07T19:01:56.769Z,2.17
2018-05-07T19:04:31.968Z,2.40
2018-05-07T19:07:06.631Z,1.60
2018-05-07T19:09:41.158Z,1.43
2018-05-07T19:12:15.693Z,3.77
2018-05-07T19:14:50.274Z,3.93
2018-05-07T19:17:24.933Z,2.47
2018-05-07T19:20:00.151Z,3.97
2018-05-07T19:22:34.794Z,7.40
2018-05-07T19:25:09.265Z,2.20
2018-05-07T19:27:43.733Z,9.23
2018-05-07T19:30:18.375Z,9.80
2018-05-07T19:32:52.928Z,3.90
2018-05-07T19:35:27.539Z,5.57
2018-05-07T19:38:01.998Z,3.47
2018-05-07T19:40:37.321Z,5.00
2018-05-07T19:43:11.897Z,14.07
2018-05-07T19:45:46.544Z,7.70
2018-05-07T19:48:21.178Z,22.37
2018-05-07T19:50:55.746Z,20.83
2018-05-07T19:53:30.261Z,25.93
2018-05-07T19:56:04.849Z,20.43
2018-05-07T19:58:39.299Z,33.97
2018-05-07T20:01:13.871Z,27.63
2018-05-07T20:03:49.151Z,33.63
2018-05-07T20:06:23.775Z,38.93
2018-05-07T20:08:58.401Z,4.97
2018-05-07T20:11:32.997Z,3.10
2018-05-07T20:14:07.515Z,3.87
2018-05-07T20:16:42.069Z,4.23
2018-05-07T20:19:16.593Z,3.33
2018-05-07T20:21:51.908Z,5.50
2018-05-07T20:24:26.550Z,3.00
2018-05-07T20:27:01.152Z,4.03
2018-05-07T20:29:35.747Z,4.70
2018-05-07T20:32:10.363Z,1.70
2018-05-07T20:34:44.994Z,2.03
2018-05-07T20:37:19.563Z,2.13
2018-05-07T20:39:54.902Z,1.87
2018-05-07T20:42:29.489Z,4.63
2018-05-07T20:45:04.809Z,2.40
2018-05-07T20:47:39.403Z,2.80
2018-05-07T20:50:14.828Z,2.80
2018-05-07T20:52:49.378Z,1.90
2018-05-07T20:55:24.024Z,1.87
2018-05-07T20:57:58.492Z,2.17
2018-05-07T21:00:33.086Z,3.03
2018-05-07T21:03:08.319Z,7.93
2018-05-07T21:05:42.909Z,3.20
2018-05-07T21:08:17.407Z,3.23
2018-05-07T21:10:51.960Z,2.13
2018-05-07T21:13:26.513Z,2.33
2018-05-07T21:16:01.799Z,2.80
2018-05-07T21:18:36.461Z,1.83
2018-05-07T21:21:11.030Z,3.37
2018-05-07T21:23:45.502Z,3.00
2018-05-07T21:26:20.168Z,3.00
2018-05-07T21:28:54.706Z,3.10
2018-05-07T21:31:29.225Z,3.27
2018-05-07T21:34:04.578Z,1.80
2018-05-07T21:36:39.028Z,2.47
2018-05-07T21:39:13.647Z,2.57
2018-05-07T21:41:48.237Z,3.90
2018-05-07T21:44:22.782Z,1.60
2018-05-07T21:46:57.420Z,4.87
2018-05-07T21:49:31.877Z,4.00
2018-05-07T21:52:06.425Z,2.83
2018-05-07T21:54:40.958Z,1.57
2018-05-07T21:57:15.573Z,2.80
2018-05-07T21:59:50.102Z,1.83
2018-05-07T22:02:24.647Z,5.33
2018-05-07T22:04:59.291Z,2.33
2018-05-07T22:07:33.981Z,2.20
2018-05-07T22:10:08.509Z,2.90
2018-05-07T22:12:42.904Z,3.73
2018-05-07T22:15:17.571Z,3.07
2018-05-07T22:17:52.216Z,2.50
2018-05-07T22:20:26.669Z,2.97
2018-05-07T22:23:01.223Z,5.03
2018-05-07T22:25:35.637Z,3.57
2018-05-07T22:28:10.312Z,2.50
2018-05-07T22:30:44.750Z,2.70
2018-05-07T22:33:19.341Z,2.63
2018-05-07T22:35:54.004Z,3.63
2018-05-07T22:38:28.592Z,2.10
2018-05-07T22:41:03.181Z,2.40
2018-05-07T22:43:37.852Z,2.53
2018-05-07T22:46:12.495Z,2.10
2018-05-07T22:48:47.798Z,2.10
2018-05-07T22:51:22.551Z,3.00
2018-05-07T22:53:57.025Z,3.97
2018-05-07T22:56:31.540Z,4.73
2018-05-07T22:59:06.129Z,2.00
2018-05-07T23:01:40.658Z,2.37
2018-05-07T23:04:15.263Z,2.03
2018-05-07T23:06:49.836Z,3.17
2018-05-07T23:09:24.312Z,2.30
2018-05-07T23:11:58.941Z,3.20
2018-05-07T23:14:33.501Z,3.20
2018-05-07T23:17:08.185Z,2.60
2018-05-07T23:19:42.807Z,2.53
2018-05-07T23:22:17.444Z,4.10
2018-05-07T23:24:52.689Z,4.83
2018-05-07T23:27:27.326Z,3.47
2018-05-07T23:30:01.963Z,2.57
2018-05-07T23:32:42.202Z,7.17
2018-05-07T23:35:16.791Z,4.93
2018-05-07T23:37:51.337Z,2.97
2018-05-07T23:40:25.765Z,3.47
2018-05-07T23:43:01.113Z,3.37
2018-05-07T23:45:35.739Z,2.83
2018-05-07T23:48:10.255Z,4.33
2018-05-07T23:50:44.794Z,4.07
2018-05-07T23:53:19.276Z,2.37
2018-05-07T23:55:53.946Z,3.30
2018-05-07T23:58:28.581Z,4.90
